Time;durP1;ratioP1;P1;durP2;ratioP2;P2;SDS_P1;SDS_P2;PMS_P1;PMS_P2;Temp;Humidity;BMP_temperature;BMP_pressure;BME280_temperature;BME280_humidity;BME280_pressure;Samples;Min_cycle;Max_cycle;Signal;HPM_P1;HPM_P2
2024/01/29 00:02:10;;;;;;;137.27;5.28;;;;;;;20.14;48.80;100964.22;7293397;19;129712;-39
2024/01/29 00:04:35;;;;;;;253.15;9.98;;;;;;;20.10;48.67;100952.28;7296072;19;130817;-38
2024/01/29 00:07:00;;;;;;;183.45;7.35;;;;;;;20.09;48.72;100953.22;7293240;19;132129;-37
2024/01/29 00:09:26;;;;;;;190.02;7.28;;;;;;;19.96;48.34;100934.91;7299110;19;132573;-38
2024/01/29 00:11:51;;;;;;;159.32;6.68;;;;;;;20.11;49.09;100944.38;7295488;19;131282;-38
2024/01/29 00:14:16;;;;;;;228.00;9.05;;;;;;;20.04;48.38;100948.28;7297015;19;130945;-39
2024/01/29 00:16:43;;;;;;;94.63;4.00;;;;;;;20.02;49.06;100952.78;7297099;19;130406;-38
2024/01/29 00:19:08;;;;;;;192.13;7.90;;;;;;;20.04;48.50;100943.06;7297254;19;130756;-38
2024/01/29 00:21:34;;;;;;;203.60;8.50;;;;;;;20.00;49.06;100935.53;7295855;19;129912;-39
2024/01/29 00:24:00;;;;;;;223.07;8.77;;;;;;;19.93;50.21;100939.47;7296863;19;129236;-38
2024/01/29 00:26:26;;;;;;;108.50;4.60;;;;;;;19.72;50.60;100925.97;7297289;19;131218;-38
2024/01/29 00:28:52;;;;;;;159.87;6.17;;;;;;;19.74;50.34;100938.91;7296873;19;129499;-38
2024/01/29 00:31:18;;;;;;;219.82;8.88;;;;;;;19.71;50.79;100944.34;7294817;19;130157;-37
2024/01/29 00:33:43;;;;;;;253.52;9.90;;;;;;;19.56;50.79;100919.19;7296644;19;133292;-37
2024/01/29 00:36:08;;;;;;;196.15;7.85;;;;;;;19.66;51.07;100941.16;7297506;19;130326;-37
2024/01/29 00:38:34;;;;;;;179.95;7.43;;;;;;;19.62;50.79;100945.72;7296732;19;130813;-40
2024/01/29 00:40:59;;;;;;;213.77;8.27;;;;;;;19.61;51.13;100940.63;7296899;19;130030;-36
2024/01/29 00:43:24;;;;;;;203.00;8.02;;;;;;;19.45;50.99;100914.66;7297045;19;132439;-38
2024/01/29 00:45:50;;;;;;;150.45;6.13;;;;;;;19.61;51.25;100938.00;7296725;19;130308;-36
2024/01/29 00:48:15;;;;;;;136.23;5.70;;;;;;;19.60;51.32;100933.72;7295761;19;129400;-37
2024/01/29 00:50:40;;;;;;;261.10;10.23;;;;;;;19.60;51.80;100942.41;7295494;19;130611;-38
2024/01/29 00:53:06;;;;;;;209.70;8.45;;;;;;;19.61;51.50;100943.22;7297472;19;129522;-38
2024/01/29 00:55:31;;;;;;;203.57;8.05;;;;;;;19.60;51.55;100942.41;7295943;19;129174;-37
2024/01/29 00:57:56;;;;;;;168.57;6.70;;;;;;;19.61;51.83;100943.22;7295092;19;131463;-38
2024/01/29 01:00:22;;;;;;;232.25;9.15;;;;;;;19.63;52.38;100933.53;7294341;19;129071;-37
2024/01/29 01:02:47;;;;;;;131.07;5.45;;;;;;;19.69;52.22;100938.38;7297038;19;131001;-37
2024/01/29 01:05:12;;;;;;;198.50;8.20;;;;;;;19.70;51.65;100938.25;7295897;19;129625;-40
2024/01/29 01:07:38;;;;;;;229.43;9.60;;;;;;;19.69;51.55;100938.38;7293550;19;129533;-39
2024/01/29 01:10:03;;;;;;;220.70;8.68;;;;;;;19.77;51.40;100938.72;7295801;19;129131;-37
2024/01/29 01:12:29;;;;;;;170.95;6.82;;;;;;;19.78;51.05;100943.88;7296390;19;134225;-41
2024/01/29 01:14:54;;;;;;;192.02;7.72;;;;;;;19.70;51.56;100911.38;7295480;19;131400;-39
2024/01/29 01:17:20;;;;;;;222.52;8.52;;;;;;;19.85;50.85;100939.13;7295739;19;129163;-38
2024/01/29 01:19:45;;;;;;;276.10;10.60;;;;;;;19.87;50.93;100929.38;7295431;19;130044;-39
2024/01/29 01:22:12;;;;;;;176.32;7.30;;;;;;;19.91;50.16;100930.88;7294153;19;131100;-40
2024/01/29 01:24:37;;;;;;;194.43;7.63;;;;;;;19.94;50.15;100925.47;7295057;19;131181;-39
2024/01/29 01:27:03;;;;;;;156.65;6.00;;;;;;;19.94;50.32;100925.47;7294478;19;129385;-39
2024/01/29 01:29:28;;;;;;;250.50;9.63;;;;;;;19.91;49.74;100926.50;7296007;19;130678;-39
2024/01/29 01:31:53;;;;;;;163.77;6.70;;;;;;;19.81;50.15;100929.78;7293474;19;130153;-44
2024/01/29 01:34:19;;;;;;;173.55;7.15;;;;;;;19.74;50.24;100924.13;7293346;19;131603;-43
2024/01/29 01:36:44;;;;;;;239.88;9.23;;;;;;;19.72;51.03;100919.94;7294617;19;130074;-40
2024/01/29 01:39:10;;;;;;;216.98;8.65;;;;;;;19.65;51.43;100918.63;7293769;19;128815;-40
2024/01/29 01:41:35;;;;;;;203.60;7.97;;;;;;;19.50;51.16;100896.09;7287275;19;130202;-43
2024/01/29 01:44:01;;;;;;;187.68;7.25;;;;;;;19.60;51.43;100908.50;7291926;19;130185;-45
2024/01/29 01:46:26;;;;;;;262.48;10.40;;;;;;;19.59;51.65;100909.41;7292424;19;130129;-41
2024/01/29 01:48:54;;;;;;;192.98;7.53;;;;;;;19.58;51.56;100914.72;7295897;19;129127;-37
2024/01/29 01:51:20;;;;;;;244.18;9.90;;;;;;;19.40;51.85;100888.81;7291313;19;130403;-41
2024/01/29 01:53:48;;;;;;;149.20;6.18;;;;;;;19.55;51.43;100907.09;7292151;19;132359;-37
2024/01/29 01:56:14;;;;;;;265.63;10.60;;;;;;;19.57;51.78;100910.44;7293621;19;129237;-41
2024/01/29 01:58:41;;;;;;;178.53;6.97;;;;;;;19.57;51.77;100902.63;7295317;19;129093;-43
2024/01/29 02:01:07;;;;;;;187.65;7.32;;;;;;;19.53;52.31;100893.31;7293355;19;130144;-45
2024/01/29 02:03:33;;;;;;;108.90;4.70;;;;;;;19.53;52.30;100893.31;7292762;19;131525;-42
2024/01/29 02:05:58;;;;;;;233.25;8.90;;;;;;;19.48;51.39;100861.44;7293191;19;130043;-38
2024/01/29 02:08:24;;;;;;;176.60;7.18;;;;;;;19.70;51.16;100880.06;7294614;19;129535;-39
2024/01/29 02:10:50;;;;;;;222.00;8.80;;;;;;;19.83;50.22;100880.97;7293157;19;130274;-41
2024/01/29 02:13:16;;;;;;;190.90;7.82;;;;;;;19.86;50.97;100876.38;7293264;19;130185;-41
2024/01/29 02:15:41;;;;;;;179.35;7.03;;;;;;;19.96;49.29;100871.41;7293810;19;129688;-40
2024/01/29 02:18:07;;;;;;;217.82;8.65;;;;;;;19.95;49.77;100865.34;7295511;19;129423;-39
2024/01/29 02:20:33;;;;;;;159.52;6.65;;;;;;;20.05;49.71;100873.41;7294729;19;130954;-38
2024/01/29 02:22:59;;;;;;;148.90;6.22;;;;;;;20.10;49.15;100873.94;7293776;19;130751;-39
2024/01/29 02:25:24;;;;;;;250.95;9.88;;;;;;;20.04;49.33;100861.31;7292987;19;129198;-40
2024/01/29 02:27:50;;;;;;;159.15;6.30;;;;;;;20.08;49.13;100866.22;7293252;19;130029;-39
2024/01/29 02:30:15;;;;;;;183.68;7.43;;;;;;;20.05;48.66;100857.75;7293348;19;131257;-44
2024/01/29 02:32:41;;;;;;;201.05;7.82;;;;;;;20.08;49.06;100854.97;7293541;19;130263;-40
2024/01/29 02:35:06;;;;;;;305.42;11.82;;;;;;;20.07;48.68;100859.34;7292561;19;129510;-39
2024/01/29 02:37:32;;;;;;;205.65;8.30;;;;;;;20.05;49.16;100849.91;7293701;19;130326;-40
2024/01/29 02:39:58;;;;;;;150.63;6.03;;;;;;;20.07;48.99;100845.44;7294048;19;131098;-40
2024/01/29 02:42:23;;;;;;;250.98;10.32;;;;;;;19.92;50.52;100843.81;7287630;19;129715;-44
2024/01/29 02:44:48;;;;;;;190.52;7.65;;;;;;;19.81;50.63;100841.06;7294788;19;129115;-43
2024/01/29 02:47:17;;;;;;;232.52;9.00;;;;;;;19.71;50.97;100840.81;7288669;19;130037;-37
2024/01/29 02:49:45;;;;;;;223.43;8.98;;;;;;;19.65;51.29;100827.31;7289461;19;129306;-44
2024/01/29 02:52:10;;;;;;;269.23;10.85;;;;;;;19.63;51.66;100826.59;7289902;19;130354;-39
2024/01/29 02:54:36;;;;;;;215.60;8.70;;;;;;;19.62;51.58;100835.34;7293744;19;131011;-40
2024/01/29 02:57:02;;;;;;;172.15;6.78;;;;;;;19.62;51.47;100835.34;7291883;19;130321;-40
2024/01/29 02:59:27;;;;;;;159.85;6.53;;;;;;;19.45;51.38;100798.09;7292056;19;130522;-38
2024/01/29 03:01:54;;;;;;;249.48;9.70;;;;;;;19.57;51.67;100819.16;7291757;19;132633;-39
2024/01/29 03:04:19;;;;;;;183.57;7.50;;;;;;;19.52;52.10;100811.59;7293444;19;128981;-40
2024/01/29 03:06:44;;;;;;;201.43;7.97;;;;;;;19.55;52.31;100815.78;7291033;19;129700;-37
2024/01/29 03:09:10;;;;;;;194.57;7.68;;;;;;;19.55;52.28;100826.22;7292417;19;130233;-38
2024/01/29 03:11:35;;;;;;;281.27;11.00;;;;;;;19.35;52.49;100781.38;7287749;19;130248;-38
2024/01/29 03:14:01;;;;;;;189.85;7.60;;;;;;;19.52;52.17;100819.41;7291694;19;130995;-38
2024/01/29 03:16:26;;;;;;;182.95;7.60;;;;;;;19.63;51.73;100821.38;7291509;19;129058;-38
2024/01/29 03:18:51;;;;;;;189.15;7.38;;;;;;;19.73;50.71;100812.88;7291195;19;130210;-36
2024/01/29 03:21:17;;;;;;;227.88;8.90;;;;;;;19.70;50.24;100794.78;7302318;19;131872;-39
2024/01/29 03:23:42;;;;;;;182.65;7.20;;;;;;;19.98;50.01;100817.34;7307420;19;130954;-39
2024/01/29 03:26:07;;;;;;;152.18;6.20;;;;;;;19.93;49.84;100808.97;7305230;19;130993;-38
2024/01/29 03:28:33;;;;;;;236.13;8.98;;;;;;;19.93;49.12;100820.22;7303797;19;130581;-37
2024/01/29 03:30:58;;;;;;;210.18;8.15;;;;;;;19.91;49.69;100816.91;7305168;19;130529;-38
2024/01/29 03:33:23;;;;;;;191.60;7.68;;;;;;;19.83;49.13;100794.84;7306159;19;129035;-38
2024/01/29 03:35:49;;;;;;;179.40;7.22;;;;;;;19.93;49.16;100815.00;7304737;19;129667;-38
2024/01/29 03:38:14;;;;;;;220.43;8.38;;;;;;;19.99;49.39;100813.78;7306593;19;131766;-39
2024/01/29 03:40:39;;;;;;;188.48;7.57;;;;;;;20.02;48.87;100810.97;7305223;19;131109;-37
2024/01/29 03:43:05;;;;;;;136.38;5.47;;;;;;;19.94;49.14;100800.19;7304190;19;130136;-37
2024/01/29 03:45:30;;;;;;;148.85;6.32;;;;;;;19.98;48.86;100806.91;7304732;19;130471;-37
2024/01/29 03:47:55;;;;;;;273.73;10.50;;;;;;;19.94;49.00;100794.97;7302757;19;130130;-39
2024/01/29 03:50:20;;;;;;;217.00;8.98;;;;;;;19.94;49.46;100805.41;7304214;19;130419;-39
2024/01/29 03:52:47;;;;;;;157.95;6.60;;;;;;;19.94;49.10;100808.88;7305079;19;130273;-35
2024/01/29 03:55:13;;;;;;;;;;;;;;;19.96;50.53;100803.53;7305784;19;129173;-40
2024/01/29 03:57:38;;;;;;;188.07;7.60;;;;;;;19.86;49.58;100773.75;7300290;19;129685;-37
2024/01/29 04:00:07;;;;;;;190.95;7.30;;;;;;;19.92;50.67;100796.84;7303662;19;130372;-39
2024/01/29 04:02:32;;;;;;;128.35;5.40;;;;;;;19.87;50.19;100798.91;7305023;19;130262;-38
2024/01/29 04:04:57;;;;;;;193.10;7.93;;;;;;;19.83;50.77;100805.28;7304677;19;131960;-40
2024/01/29 04:07:23;;;;;;;262.67;10.70;;;;;;;19.77;51.29;100797.81;7303397;19;130166;-38
2024/01/29 04:09:48;;;;;;;200.82;8.02;;;;;;;19.74;51.48;100798.03;7304867;19;130408;-35
2024/01/29 04:12:13;;;;;;;113.57;4.68;;;;;;;19.70;51.81;100793.97;7300156;19;129414;-36
2024/01/29 04:14:39;;;;;;;254.77;10.10;;;;;;;19.67;51.42;100796.78;7299271;19;130058;-38
2024/01/29 04:17:06;;;;;;;253.32;9.80;;;;;;;19.68;51.18;100799.28;7299940;19;131357;-38
2024/01/29 04:19:32;;;;;;;176.30;7.05;;;;;;;19.69;52.08;100797.47;7300379;19;131783;-38
2024/01/29 04:21:57;;;;;;;179.43;7.20;;;;;;;19.51;51.49;100780.41;7299454;19;129624;-40
2024/01/29 04:24:23;;;;;;;299.63;11.48;;;;;;;19.64;51.62;100799.53;7303311;19;129099;-38
2024/01/29 04:26:48;;;;;;;201.32;8.05;;;;;;;19.47;51.61;100776.31;7304259;19;131883;-39
2024/01/29 04:29:14;;;;;;;161.18;6.28;;;;;;;19.59;52.49;100799.00;7304089;19;130293;-35
2024/01/29 04:31:39;;;;;;;188.48;7.38;;;;;;;19.68;51.77;100801.03;7300246;19;129217;-38
2024/01/29 04:34:05;;;;;;;255.13;9.82;;;;;;;19.78;50.17;100799.53;7296181;19;129088;-39
2024/01/29 04:36:31;;;;;;;206.37;8.37;;;;;;;19.81;49.87;100799.31;7297089;19;130734;-41
2024/01/29 04:38:57;;;;;;;167.77;6.78;;;;;;;19.85;50.09;100803.41;7296004;19;129652;-38
2024/01/29 04:41:22;;;;;;;198.50;7.82;;;;;;;19.76;51.22;100802.22;7294551;19;132456;-41
2024/01/29 04:43:49;;;;;;;200.20;7.75;;;;;;;19.62;52.05;100798.84;7297109;19;129891;-40
2024/01/29 04:46:14;;;;;;;189.52;7.40;;;;;;;19.68;50.72;100798.44;7297428;19;130836;-37
2024/01/29 04:48:40;;;;;;;139.65;5.78;;;;;;;19.86;50.11;100784.19;7296589;19;133219;-39
2024/01/29 04:51:07;;;;;;;209.77;8.45;;;;;;;20.20;49.40;100786.28;7295090;19;129191;-40
2024/01/29 04:53:33;;;;;;;;;;;;;;;20.48;48.60;100791.34;7293823;19;129749;-35
2024/01/29 04:55:59;;;;;;;190.02;7.50;;;;;;;21.43;46.34;100777.66;7296626;19;131234;-39
2024/01/29 04:58:24;;;;;;;196.13;7.80;;;;;;;22.89;43.20;100789.38;7294796;19;130508;-36
2024/01/29 05:00:50;;;;;;;210.93;8.25;;;;;;;23.49;41.73;100773.22;7294230;19;132133;-40
2024/01/29 05:03:15;;;;;;;222.57;9.20;;;;;;;23.92;40.64;100780.13;7295818;19;129919;-44
2024/01/29 05:05:40;;;;;;;102.55;4.28;;;;;;;24.04;40.14;100776.53;7294511;19;129748;-44
2024/01/29 05:08:06;;;;;;;148.48;5.95;;;;;;;23.98;40.41;100784.09;7293300;19;130691;-41
2024/01/29 05:10:31;;;;;;;259.08;10.45;;;;;;;23.96;40.20;100781.56;7294889;19;130443;-39
2024/01/29 05:12:56;;;;;;;233.23;8.95;;;;;;;24.05;40.15;100782.59;7296959;19;129136;-39
2024/01/29 05:15:22;;;;;;;171.52;6.88;;;;;;;23.91;40.72;100775.84;7295154;19;130552;-39
2024/01/29 05:17:47;;;;;;;143.48;5.72;;;;;;;23.69;40.68;100781.16;7295635;19;131153;-37
2024/01/29 05:20:12;;;;;;;250.00;9.80;;;;;;;23.53;41.17;100786.00;7294464;19;129326;-37
2024/01/29 05:22:38;;;;;;;225.77;8.77;;;;;;;23.25;41.95;100787.31;7295732;19;129445;-38
2024/01/29 05:25:04;;;;;;;264.77;10.00;;;;;;;22.33;43.59;100785.00;7291173;19;130178;-38
2024/01/29 05:27:29;;;;;;;249.27;10.27;;;;;;;21.90;44.42;100788.16;7286005;19;132134;-38
2024/01/29 05:29:55;;;;;;;408.42;17.00;;;;;;;21.46;45.53;100769.59;7288336;19;129136;-38
2024/01/29 05:32:21;;;;;;;217.87;9.17;;;;;;;21.36;45.62;100793.91;7289763;19;129302;-36
2024/01/29 05:34:46;;;;;;;199.15;8.20;;;;;;;21.53;45.61;100789.16;7294222;19;130801;-38
2024/01/29 05:37:12;;;;;;;153.60;6.20;;;;;;;21.81;45.78;100788.84;7293217;19;130436;-35
2024/01/29 05:39:37;;;;;;;255.38;9.95;;;;;;;21.68;46.15;100790.63;7291555;19;132122;-37
2024/01/29 05:42:03;;;;;;;176.07;7.20;;;;;;;21.54;46.67;100785.56;7291981;19;130087;-38
2024/01/29 05:44:28;;;;;;;215.38;8.75;;;;;;;21.41;47.17;100779.56;7292432;19;130407;-38
2024/01/29 05:46:53;;;;;;;194.52;7.70;;;;;;;21.32;47.47;100801.13;7289835;19;130162;-38
2024/01/29 05:49:19;;;;;;;221.77;9.02;;;;;;;21.29;47.55;100785.66;7291547;19;129541;-37
2024/01/29 05:51:44;;;;;;;177.55;7.30;;;;;;;21.01;48.07;100780.69;7288494;19;129279;-38
2024/01/29 05:54:09;;;;;;;179.30;7.05;;;;;;;20.90;48.23;100783.19;7291079;19;130716;-38
2024/01/29 05:56:40;;;;;;;290.13;11.85;;;;;;;20.79;48.41;100790.94;7289719;19;131062;-38
2024/01/29 05:59:05;;;;;;;207.52;7.95;;;;;;;20.69;48.58;100782.06;7293750;19;130159;-36
2024/01/29 06:01:30;;;;;;;196.00;8.35;;;;;;;20.61;49.16;100781.72;7289194;19;130455;-38
2024/01/29 06:03:56;;;;;;;196.93;7.68;;;;;;;20.55;49.78;100782.16;7292275;19;130124;-39
2024/01/29 06:06:21;;;;;;;128.90;5.38;;;;;;;20.28;49.54;100760.53;7291646;19;130781;-38
2024/01/29 06:08:46;;;;;;;212.13;8.35;;;;;;;20.30;49.67;100787.34;7291039;19;129184;-36
2024/01/29 06:11:12;;;;;;;195.48;7.85;;;;;;;20.17;50.33;100787.34;7290063;19;129112;-37
2024/01/29 06:13:38;;;;;;;282.63;11.52;;;;;;;20.10;50.05;100785.19;7290815;19;132159;-38
2024/01/29 06:16:04;;;;;;;268.38;10.50;;;;;;;20.11;50.04;100792.94;7286817;19;130403;-39
2024/01/29 06:18:29;;;;;;;225.93;8.85;;;;;;;20.11;50.37;100792.09;7286199;19;129420;-38
2024/01/29 06:20:55;;;;;;;204.68;8.18;;;;;;;20.11;50.86;100799.94;7289271;19;131792;-38
2024/01/29 06:23:20;;;;;;;193.38;7.55;;;;;;;20.13;49.87;100795.44;7290952;19;131891;-38
2024/01/29 06:25:45;;;;;;;247.68;9.80;;;;;;;20.10;50.00;100790.41;7291126;19;132169;-38
2024/01/29 06:28:11;;;;;;;174.13;7.07;;;;;;;20.12;49.79;100789.38;7287268;19;130004;-39
2024/01/29 06:30:36;;;;;;;119.00;5.35;;;;;;;20.09;49.28;100778.31;7289345;19;129591;-37
2024/01/29 06:33:01;;;;;;;193.35;7.47;;;;;;;20.21;50.08;100795.81;7290705;19;130162;-41
2024/01/29 06:35:27;;;;;;;273.38;10.68;;;;;;;20.23;48.94;100796.56;7287963;19;132212;-38
2024/01/29 06:37:52;;;;;;;297.45;12.10;;;;;;;20.11;49.40;100798.16;7282378;19;131055;-34
2024/01/29 06:40:18;;;;;;;128.77;5.20;;;;;;;20.02;50.33;100793.53;7286762;19;129993;-36
2024/01/29 06:42:43;;;;;;;251.55;10.82;;;;;;;19.98;50.70;100802.50;7289469;19;130641;-39
2024/01/29 06:45:09;;;;;;;335.40;14.20;;;;;;;19.96;51.36;100796.56;7290097;19;130952;-37
2024/01/29 06:47:34;;;;;;;218.95;10.05;;;;;;;19.92;50.72;100804.66;7289757;19;130849;-39
2024/01/29 06:49:59;;;;;;;137.85;5.43;;;;;;;19.87;51.34;100804.13;7291431;19;129788;-36
2024/01/29 06:52:25;;;;;;;154.02;6.35;;;;;;;19.87;51.06;100801.50;7288280;19;130124;-35
2024/01/29 06:54:52;;;;;;;210.03;8.70;;;;;;;19.85;51.00;100808.63;7289986;19;130919;-39
2024/01/29 06:57:18;;;;;;;235.05;9.77;;;;;;;19.68;51.75;100782.78;7286336;19;131076;-38
2024/01/29 06:59:43;;;;;;;225.88;9.68;;;;;;;19.89;51.66;100804.88;7287404;19;129632;-45
2024/01/29 07:02:08;;;;;;;233.40;9.05;;;;;;;19.94;51.02;100805.41;7286693;19;131773;-39
2024/01/29 07:04:34;;;;;;;205.57;8.48;;;;;;;19.94;50.99;100811.47;7288915;19;130316;-38
2024/01/29 07:07:00;;;;;;;237.00;9.88;;;;;;;19.88;50.92;100813.66;7290982;19;134023;-38
2024/01/29 07:09:25;;;;;;;163.43;6.73;;;;;;;19.87;50.80;100817.16;7284800;19;130978;-37
2024/01/29 07:11:50;;;;;;;255.68;10.20;;;;;;;19.88;50.60;100817.09;7289233;19;133421;-38
2024/01/29 07:14:16;;;;;;;222.55;8.88;;;;;;;19.90;50.88;100810.00;7292384;19;132317;-39
2024/01/29 07:16:41;;;;;;;187.13;7.72;;;;;;;19.97;50.57;100818.25;7291044;19;130898;-38
2024/01/29 07:19:07;;;;;;;189.73;7.57;;;;;;;20.05;50.20;100813.38;7289971;19;129544;-38
2024/01/29 07:21:32;;;;;;;225.05;9.15;;;;;;;20.10;49.38;100811.28;7289143;19;132521;-38
2024/01/29 07:23:57;;;;;;;160.23;6.63;;;;;;;20.13;49.53;100817.16;7292381;19;134603;-38
2024/01/29 07:26:24;;;;;;;188.23;7.70;;;;;;;20.22;49.49;100815.75;7291853;19;130040;-38
2024/01/29 07:28:49;;;;;;;217.48;9.15;;;;;;;20.16;48.76;100797.88;7289199;19;129546;-37
2024/01/29 07:31:17;;;;;;;211.50;8.75;;;;;;;20.99;47.69;100819.16;7291280;19;129296;-38
2024/01/29 07:33:42;;;;;;;177.35;7.47;;;;;;;21.32;47.12;100819.44;7289548;19;131645;-37
2024/01/29 07:36:08;;;;;;;195.27;8.18;;;;;;;21.39;46.91;100822.44;7290970;19;129639;-38
2024/01/29 07:38:33;;;;;;;180.95;7.07;;;;;;;21.42;46.49;100823.06;7290610;19;129286;-38
2024/01/29 07:40:59;;;;;;;280.65;11.65;;;;;;;21.45;46.36;100822.84;7286982;19;130499;-38
2024/01/29 07:43:24;;;;;;;156.65;6.55;;;;;;;21.28;46.72;100830.22;7292518;19;130967;-38
2024/01/29 07:45:50;;;;;;;255.57;10.38;;;;;;;21.23;47.25;100822.72;7290334;19;129803;-38
2024/01/29 07:48:16;;;;;;;203.10;8.20;;;;;;;21.13;47.36;100832.13;7286892;19;129376;-37
2024/01/29 07:50:41;;;;;;;186.38;8.07;;;;;;;21.07;48.18;100827.34;7289488;19;130505;-38
2024/01/29 07:53:06;;;;;;;106.67;4.73;;;;;;;21.00;48.04;100823.47;7290051;19;130910;-37
2024/01/29 07:55:32;;;;;;;207.65;8.45;;;;;;;20.90;48.18;100819.78;7289862;19;129794;-38
2024/01/29 07:57:57;;;;;;;296.70;11.90;;;;;;;20.64;49.00;100805.06;7288554;19;130654;-38
2024/01/29 08:00:22;;;;;;;169.95;7.03;;;;;;;20.80;48.96;100826.59;7288828;19;130120;-38
2024/01/29 08:02:48;;;;;;;173.52;7.28;;;;;;;20.56;49.03;100831.69;7288788;19;130842;-38
2024/01/29 08:05:13;;;;;;;208.38;8.57;;;;;;;20.22;49.47;100815.75;7288503;19;129212;-38
2024/01/29 08:07:39;;;;;;;236.95;9.73;;;;;;;20.22;49.72;100831.41;7292090;19;129262;-39
2024/01/29 08:10:05;;;;;;;205.35;8.25;;;;;;;20.16;50.59;100837.06;7297607;19;130192;-38
2024/01/29 08:12:30;;;;;;;160.23;6.53;;;;;;;20.11;49.68;100833.88;7297561;19;130784;-38
2024/01/29 08:14:55;;;;;;;227.88;9.15;;;;;;;20.09;49.83;100830.53;7296153;19;131300;-38
2024/01/29 08:17:21;;;;;;;203.10;8.38;;;;;;;20.04;49.82;100840.41;7295558;19;130500;-38
2024/01/29 08:19:46;;;;;;;201.95;8.57;;;;;;;20.04;49.70;100835.19;7294643;19;130308;-38
2024/01/29 08:22:12;;;;;;;153.50;6.10;;;;;;;20.01;49.83;100833.63;7287840;19;131214;-40
2024/01/29 08:24:37;;;;;;;209.68;8.55;;;;;;;20.00;49.76;100836.34;7297998;19;130930;-32
2024/01/29 08:27:03;;;;;;;197.88;7.97;;;;;;;20.10;49.77;100838.25;7289667;19;130000;-40
2024/01/29 08:29:28;;;;;;;218.98;8.50;;;;;;;20.11;49.76;100836.47;7294801;19;130726;-38
2024/01/29 08:31:54;;;;;;;247.13;10.02;;;;;;;20.15;50.25;100840.59;7295684;19;131602;-39
2024/01/29 08:34:19;;;;;;;369.30;14.57;;;;;;;20.10;49.86;100829.56;7291036;19;130543;-44
2024/01/29 08:36:44;;;;;;;216.82;9.10;;;;;;;20.07;50.17;100833.22;7290006;19;130505;-44
2024/01/29 08:39:10;;;;;;;243.70;9.38;;;;;;;20.05;50.89;100826.41;7289787;19;130497;-41
2024/01/29 08:41:35;;;;;;;190.52;7.40;;;;;;;19.99;50.54;100824.22;7290074;19;131520;-39
2024/01/29 08:44:03;;;;;;;246.80;9.60;;;;;;;19.98;50.99;100833.00;7297399;19;129400;-39
2024/01/29 08:46:28;;;;;;;172.60;7.35;;;;;;;19.92;51.28;100829.00;7295483;19;129998;-40
2024/01/29 08:48:53;;;;;;;230.40;9.48;;;;;;;19.85;51.55;100829.50;7292409;19;129832;-41
2024/01/29 08:51:19;;;;;;;209.13;8.32;;;;;;;19.90;51.14;100835.28;7295498;19;130434;-39
2024/01/29 08:53:44;;;;;;;233.50;9.65;;;;;;;19.90;51.63;100830.06;7293729;19;131721;-40
2024/01/29 08:56:09;;;;;;;151.70;6.32;;;;;;;19.91;51.53;100821.28;7297687;19;131287;-40
2024/01/29 08:58:35;;;;;;;205.07;8.50;;;;;;;19.88;51.92;100827.53;7293159;19;130171;-39
2024/01/29 09:01:02;;;;;;;251.20;9.85;;;;;;;19.86;50.92;100831.16;7293214;19;131743;-37
2024/01/29 09:03:28;;;;;;;190.85;7.82;;;;;;;19.88;50.84;100831.91;7296480;19;129761;-44
2024/01/29 09:05:53;;;;;;;238.40;10.00;;;;;;;19.88;50.96;100827.53;7293612;19;129703;-42
2024/01/29 09:08:19;;;;;;;165.70;6.55;;;;;;;19.89;50.99;100828.34;7295086;19;131158;-38
2024/01/29 09:10:44;;;;;;;278.15;10.95;;;;;;;19.88;50.75;100827.53;7290607;19;130447;-41
2024/01/29 09:13:09;;;;;;;163.43;6.47;;;;;;;19.88;50.75;100835.38;7293911;19;129269;-40
2024/01/29 09:15:36;;;;;;;197.35;8.20;;;;;;;19.76;51.40;100807.44;7293887;19;129547;-42
2024/01/29 09:18:01;;;;;;;152.93;6.23;;;;;;;19.91;50.99;100842.16;7290354;19;131649;-40
2024/01/29 09:20:27;;;;;;;244.07;9.48;;;;;;;19.92;50.67;100833.38;7293087;19;131355;-37
2024/01/29 09:22:53;;;;;;;167.75;7.10;;;;;;;19.92;50.42;100834.22;7295194;19;131213;-44
2024/01/29 09:25:19;;;;;;;171.93;7.05;;;;;;;19.89;50.55;100836.19;7295256;19;130084;-42
2024/01/29 09:27:44;;;;;;;308.50;13.38;;;;;;;19.88;50.87;100839.75;7291617;19;130257;-41
2024/01/29 09:30:10;;;;;;;287.15;11.38;;;;;;;19.75;50.66;100821.41;7290204;19;130487;-41
2024/01/29 09:32:35;;;;;;;148.02;6.05;;;;;;;19.87;50.55;100835.44;7295506;19;129118;-40
2024/01/29 09:35:00;;;;;;;180.23;7.22;;;;;;;19.88;50.60;100842.34;7293938;19;131439;-38
2024/01/29 09:37:26;;;;;;;183.20;8.02;;;;;;;19.84;50.76;100831.28;7294300;19;131094;-39
2024/01/29 09:39:53;;;;;;;277.98;11.27;;;;;;;20.02;50.45;100834.47;7292940;19;129766;-42
2024/01/29 09:42:19;;;;;;;182.32;7.57;;;;;;;20.03;50.74;100830.94;7292439;19;129402;-38
2024/01/29 09:44:47;;;;;;;93.65;4.35;;;;;;;20.09;50.51;100827.91;7292517;19;132724;-37
2024/01/29 09:47:14;;;;;;;196.15;8.35;;;;;;;20.17;50.42;100836.09;7291837;19;131187;-38
2024/01/29 09:49:40;;;;;;;208.07;8.35;;;;;;;19.96;50.56;100808.75;7294065;19;129705;-38
2024/01/29 09:52:10;;;;;;;241.45;9.93;;;;;;;20.12;50.69;100838.16;7289475;19;129682;-37
2024/01/29 09:54:36;;;;;;;152.80;6.50;;;;;;;20.10;50.82;100834.78;7295828;19;131094;-41
2024/01/29 09:57:02;;;;;;;238.82;10.45;;;;;;;20.12;50.65;100841.59;7289933;19;129888;-35
2024/01/29 09:59:27;;;;;;;230.82;9.25;;;;;;;20.06;51.29;100835.94;7294212;19;132367;-36
2024/01/29 10:01:53;;;;;;;196.10;8.50;;;;;;;20.04;51.33;100837.81;7290584;19;130573;-39
2024/01/29 10:04:21;;;;;;;195.18;8.45;;;;;;;20.06;51.13;100841.16;7293587;19;129060;-41
2024/01/29 10:06:47;;;;;;;175.95;7.22;;;;;;;20.04;50.74;100840.41;7293385;19;130227;-37
2024/01/29 10:09:12;;;;;;;274.02;11.05;;;;;;;20.04;51.43;100843.88;7289193;19;132290;-36
2024/01/29 10:11:39;;;;;;;247.63;10.07;;;;;;;19.91;51.18;100842.16;7283461;19;129627;-38
2024/01/29 10:14:05;;;;;;;110.82;4.88;;;;;;;19.82;51.71;100845.34;7286703;19;132066;-39
2024/01/29 10:16:30;;;;;;;263.20;11.13;;;;;;;19.84;51.56;100840.88;7287627;19;130754;-40
2024/01/29 10:19:00;;;;;;;244.10;10.48;;;;;;;19.64;51.39;100812.59;7293478;19;130488;-41
2024/01/29 10:21:26;;;;;;;249.38;10.07;;;;;;;19.83;51.61;100849.63;7286535;19;129710;-41
2024/01/29 10:23:58;;;;;;;196.18;8.63;;;;;;;19.86;50.85;100849.44;7291453;19;129140;-35
2024/01/29 10:26:24;;;;;;;249.18;10.15;;;;;;;19.90;50.83;100841.31;7290539;19;129724;-36
2024/01/29 10:29:06;;;;;;;202.23;8.60;;;;;;;19.87;51.18;100838.06;7290498;19;130573;-40
2024/01/29 10:31:32;;;;;;;155.35;6.32;;;;;;;19.87;51.02;100835.44;7291814;19;130144;-40
2024/01/29 10:33:59;;;;;;;216.77;9.00;;;;;;;19.89;51.09;100833.56;7290207;19;129453;-38
2024/01/29 10:36:25;;;;;;;192.80;8.48;;;;;;;19.92;50.32;100834.22;7288904;19;131522;-38
2024/01/29 10:38:51;;;;;;;250.93;10.50;;;;;;;19.89;50.90;100829.19;7291332;19;130413;-37
2024/01/29 10:41:23;;;;;;;211.13;8.57;;;;;;;19.90;50.48;100830.06;7291217;19;129756;-34
2024/01/29 10:43:49;;;;;;;209.50;8.65;;;;;;;19.75;50.82;100794.50;7294077;19;129757;-37
2024/01/29 10:46:20;;;;;;;202.77;8.35;;;;;;;19.73;51.02;100796.38;7292315;19;130231;-40
2024/01/29 10:48:46;;;;;;;229.57;9.70;;;;;;;19.89;50.91;100818.75;7287433;19;130565;-39
2024/01/29 10:51:15;;;;;;;208.48;9.00;;;;;;;20.09;50.03;100820.06;7292854;19;129463;-40
2024/01/29 10:53:42;;;;;;;199.45;8.82;;;;;;;20.10;50.44;100813.91;7291190;19;131434;-38
2024/01/29 10:56:11;;;;;;;160.85;7.10;;;;;;;20.17;50.20;100828.28;7290017;19;130229;-35